sensor_id;sensor_type;location;lat;lon;timestamp;P1;durP1;ratioP1;P2;durP2;ratioP2
50563;SDS011;36514;52.590;21.448;2023-08-24T06:38:20;1819.01;;;909.87;;
50563;SDS011;36514;52.590;21.448;2023-08-24T06:48:21;1819.03;;;909.89;;
50563;SDS011;36514;52.590;21.448;2023-08-24T06:58:23;1819.01;;;909.87;;
50563;SDS011;36514;52.590;21.448;2023-08-24T07:08:23;1818.95;;;909.82;;
50563;SDS011;36514;52.590;21.448;2023-08-24T07:18:38;1818.86;;;909.74;;
50563;SDS011;36514;52.590;21.448;2023-08-24T07:28:33;1818.85;;;909.73;;
50563;SDS011;36514;52.590;21.448;2023-08-24T07:38:33;1818.94;;;909.81;;
50563;SDS011;36514;52.590;21.448;2023-08-24T07:48:38;1818.87;;;909.75;;
50563;SDS011;36514;52.590;21.448;2023-08-24T07:58:45;1818.84;;;909.71;;
50563;SDS011;36514;52.590;21.448;2023-08-24T08:08:52;1818.94;;;909.81;;
50563;SDS011;36514;52.590;21.448;2023-08-24T08:18:40;1818.90;;;909.77;;
50563;SDS011;36514;52.590;21.448;2023-08-24T08:28:40;1818.87;;;909.75;;
50563;SDS011;36514;52.590;21.448;2023-08-24T08:38:34;1818.90;;;909.77;;
50563;SDS011;36514;52.590;21.448;2023-08-24T08:48:25;1818.90;;;909.77;;
50563;SDS011;36514;52.590;21.448;2023-08-24T08:58:28;1818.88;;;909.75;;
50563;SDS011;36514;52.590;21.448;2023-08-24T09:08:32;1818.94;;;909.81;;
50563;SDS011;36514;52.590;21.448;2023-08-24T09:18:39;1818.85;;;909.73;;
50563;SDS011;36514;52.590;21.448;2023-08-24T09:28:42;1818.92;;;909.79;;
50563;SDS011;36514;52.590;21.448;2023-08-24T09:38:34;1818.95;;;909.82;;
50563;SDS011;36514;52.590;21.448;2023-08-24T09:48:33;1818.92;;;909.79;;
50563;SDS011;36514;52.590;21.448;2023-08-24T09:58:30;1818.93;;;909.80;;
50563;SDS011;36514;52.590;21.448;2023-08-24T10:08:26;1818.91;;;909.78;;
50563;SDS011;36514;52.590;21.448;2023-08-24T10:18:18;1818.83;;;909.70;;
50563;SDS011;36514;52.590;21.448;2023-08-24T10:28:07;1818.84;;;909.71;;
50563;SDS011;36514;52.590;21.448;2023-08-24T10:38:01;1818.85;;;909.73;;
50563;SDS011;36514;52.590;21.448;2023-08-24T10:48:04;1818.75;;;909.63;;
50563;SDS011;36514;52.590;21.448;2023-08-24T10:58:04;1818.92;;;909.79;;
50563;SDS011;36514;52.590;21.448;2023-08-24T11:08:13;1818.85;;;909.73;;
50563;SDS011;36514;52.590;21.448;2023-08-24T11:18:32;1818.90;;;909.77;;
50563;SDS011;36514;52.590;21.448;2023-08-24T11:28:30;1818.84;;;909.71;;
50563;SDS011;36514;52.590;21.448;2023-08-24T11:38:55;1818.86;;;909.74;;
50563;SDS011;36514;52.590;21.448;2023-08-24T11:48:34;1818.93;;;909.80;;
50563;SDS011;36514;52.590;21.448;2023-08-24T11:58:42;1818.90;;;909.77;;
50563;SDS011;36514;52.590;21.448;2023-08-24T12:08:31;1818.90;;;909.77;;
50563;SDS011;36514;52.590;21.448;2023-08-24T12:18:45;1818.88;;;909.75;;
50563;SDS011;36514;52.590;21.448;2023-08-24T12:28:52;1818.88;;;909.75;;
50563;SDS011;36514;52.590;21.448;2023-08-24T12:38:42;1818.91;;;909.78;;
50563;SDS011;36514;52.590;21.448;2023-08-24T12:48:17;1818.84;;;909.71;;
50563;SDS011;36514;52.590;21.448;2023-08-24T12:58:06;1818.88;;;909.75;;
50563;SDS011;36514;52.590;21.448;2023-08-24T13:08:20;1818.93;;;909.80;;
50563;SDS011;36514;52.590;21.448;2023-08-24T13:18:22;1818.85;;;909.73;;
50563;SDS011;36514;52.590;21.448;2023-08-24T13:28:05;1818.89;;;909.76;;
50563;SDS011;36514;52.590;21.448;2023-08-24T13:37:59;1818.85;;;909.72;;
50563;SDS011;36514;52.590;21.448;2023-08-24T13:48:19;1818.85;;;909.72;;
50563;SDS011;36514;52.590;21.448;2023-08-24T13:58:25;1818.91;;;909.78;;
50563;SDS011;36514;52.590;21.448;2023-08-24T14:08:19;1818.86;;;909.74;;
50563;SDS011;36514;52.590;21.448;2023-08-24T14:18:25;1818.93;;;909.80;;
50563;SDS011;36514;52.590;21.448;2023-08-24T14:28:25;1818.87;;;909.75;;
50563;SDS011;36514;52.590;21.448;2023-08-24T14:38:17;1818.95;;;909.83;;
50563;SDS011;36514;52.590;21.448;2023-08-24T14:48:23;1818.86;;;909.74;;
50563;SDS011;36514;52.590;21.448;2023-08-24T14:58:24;1818.92;;;909.79;;
50563;SDS011;36514;52.590;21.448;2023-08-24T15:08:23;1818.97;;;909.84;;
50563;SDS011;36514;52.590;21.448;2023-08-24T15:18:21;1818.90;;;909.77;;
50563;SDS011;36514;52.590;21.448;2023-08-24T15:28:13;1818.87;;;909.75;;
50563;SDS011;36514;52.590;21.448;2023-08-24T15:37:58;1818.83;;;909.70;;
50563;SDS011;36514;52.590;21.448;2023-08-24T15:47:50;1818.90;;;909.77;;
50563;SDS011;36514;52.590;21.448;2023-08-24T15:57:45;1818.91;;;909.78;;
50563;SDS011;36514;52.590;21.448;2023-08-24T16:07:43;1818.89;;;909.76;;
50563;SDS011;36514;52.590;21.448;2023-08-24T16:17:40;1818.88;;;909.75;;
50563;SDS011;36514;52.590;21.448;2023-08-24T16:27:43;1818.89;;;909.76;;
50563;SDS011;36514;52.590;21.448;2023-08-24T16:37:37;1818.70;;;909.58;;
50563;SDS011;36514;52.590;21.448;2023-08-24T16:47:32;1818.93;;;909.80;;
50563;SDS011;36514;52.590;21.448;2023-08-24T16:57:26;1818.91;;;909.78;;
50563;SDS011;36514;52.590;21.448;2023-08-24T17:07:21;1819.01;;;909.87;;
50563;SDS011;36514;52.590;21.448;2023-08-24T17:17:16;1819.05;;;909.91;;
50563;SDS011;36514;52.590;21.448;2023-08-24T17:27:11;1819.03;;;909.89;;
50563;SDS011;36514;52.590;21.448;2023-08-24T17:37:08;1338.15;;;665.83;;
50563;SDS011;36514;52.590;21.448;2023-08-24T17:47:03;1247.09;;;708.41;;
50563;SDS011;36514;52.590;21.448;2023-08-24T17:57:00;1306.42;;;737.91;;
50563;SDS011;36514;52.590;21.448;2023-08-24T18:06:56;1727.53;;;878.75;;
50563;SDS011;36514;52.590;21.448;2023-08-24T18:16:52;1325.85;;;613.69;;
50563;SDS011;36514;52.590;21.448;2023-08-24T18:26:48;1013.74;;;469.18;;
50563;SDS011;36514;52.590;21.448;2023-08-24T18:36:45;1097.00;;;607.85;;
50563;SDS011;36514;52.590;21.448;2023-08-24T18:46:42;1184.84;;;710.35;;
50563;SDS011;36514;52.590;21.448;2023-08-24T18:56:40;1341.49;;;783.73;;
50563;SDS011;36514;52.590;21.448;2023-08-24T19:06:36;1334.48;;;779.37;;
50563;SDS011;36514;52.590;21.448;2023-08-24T19:16:32;1400.13;;;736.49;;
50563;SDS011;36514;52.590;21.448;2023-08-24T19:26:29;1819.13;;;909.99;;
